Time;durP1;ratioP1;P1;durP2;ratioP2;P2;SDS_P1;SDS_P2;PMS_P1;PMS_P2;Temp;Humidity;BMP_temperature;BMP_pressure;BME280_temperature;BME280_humidity;BME280_pressure;Samples;Min_cycle;Max_cycle;Signal;HPM_P1;HPM_P2
2022/07/17 00:02:05;;;;;;;;;;;24.70;46.60;;;;;;5073659;28;19956;-73
2022/07/17 00:04:30;;;;;;;;;;;24.80;46.70;;;;;;5073669;28;19908;-73
2022/07/17 00:06:56;;;;;;;;;;;24.80;46.70;;;;;;5073980;28;19909;-73
2022/07/17 00:09:21;;;;;;;;;;;24.80;46.70;;;;;;5073754;28;19962;-73
2022/07/17 00:11:47;;;;;;;;;;;24.70;46.70;;;;;;5073486;28;20366;-73
2022/07/17 00:14:12;;;;;;;;;;;24.80;46.90;;;;;;5073582;28;20347;-73
2022/07/17 00:16:38;;;;;;;;;;;24.70;46.80;;;;;;5074049;28;20351;-74
2022/07/17 00:19:03;;;;;;;;;;;24.70;46.90;;;;;;5073751;28;19920;-73
2022/07/17 00:21:29;;;;;;;;;;;24.70;47.00;;;;;;5055611;28;19909;-73
2022/07/17 00:23:55;;;;;;;;;;;24.70;47.00;;;;;;5073505;28;19915;-73
2022/07/17 00:26:20;;;;;;;;;;;24.70;47.00;;;;;;5073628;28;19915;-73
2022/07/17 00:28:46;;;;;;;;;;;24.70;47.20;;;;;;5073596;28;19909;-73
2022/07/17 00:31:11;;;;;;;;;;;24.70;47.20;;;;;;5055785;28;19920;-73
2022/07/17 00:33:37;;;;;;;;;;;24.70;47.30;;;;;;5073685;28;19963;-73
2022/07/17 00:36:03;;;;;;;;;;;24.70;47.40;;;;;;5073426;28;19909;-72
2022/07/17 00:38:28;;;;;;;;;;;24.70;47.50;;;;;;5073420;28;20270;-73
2022/07/17 00:40:55;;;;;;;;;;;24.70;47.50;;;;;;5073577;28;19931;-73
2022/07/17 00:43:21;;;;;;;;;;;24.70;47.70;;;;;;5055320;28;20012;-73
2022/07/17 00:45:53;;;;;;;;;;;24.70;47.60;;;;;;5073609;28;19944;-74
2022/07/17 00:48:19;;;;;;;;;;;24.70;47.80;;;;;;5073672;28;19912;-74
2022/07/17 00:50:45;;;;;;;;;;;24.70;47.80;;;;;;5073421;28;19920;-74
2022/07/17 00:53:10;;;;;;;;;;;24.70;47.90;;;;;;5073328;28;20425;-74
2022/07/17 00:55:36;;;;;;;;;;;24.60;48.00;;;;;;5057618;28;19956;-74
2022/07/17 00:58:03;;;;;;;;;;;24.60;48.00;;;;;;5076649;28;20278;-73
2022/07/17 01:00:29;;;;;;;;;;;24.60;48.10;;;;;;5076794;28;19909;-74
2022/07/17 01:02:55;;;;;;;;;;;24.60;48.20;;;;;;5076428;28;19915;-74
2022/07/17 01:05:21;;;;;;;;;;;24.60;48.20;;;;;;5076726;28;19950;-72
2022/07/17 01:07:47;;;;;;;;;;;24.60;48.40;;;;;;5076642;28;19940;-73
2022/07/17 01:10:13;;;;;;;;;;;24.60;48.40;;;;;;5076395;28;19908;-74
2022/07/17 01:12:40;;;;;;;;;;;24.60;48.50;;;;;;5076482;28;20366;-74
2022/07/17 01:15:07;;;;;;;;;;;24.60;48.50;;;;;;5076826;28;20334;-74
2022/07/17 01:17:32;;;;;;;;;;;24.60;48.70;;;;;;5076623;28;20260;-73
2022/07/17 01:19:58;;;;;;;;;;;24.50;48.60;;;;;;5058761;28;19915;-74
2022/07/17 01:22:25;;;;;;;;;;;24.50;48.80;;;;;;5076451;28;19966;-73
2022/07/17 01:24:50;;;;;;;;;;;24.50;48.90;;;;;;5076218;28;20361;-73
2022/07/17 01:27:16;;;;;;;;;;;24.50;49.00;;;;;;5076238;28;19909;-73
2022/07/17 01:29:41;;;;;;;;;;;24.50;49.00;;;;;;5076183;28;20306;-73
2022/07/17 01:32:07;;;;;;;;;;;24.50;49.10;;;;;;5076794;28;19939;-73
2022/07/17 01:34:32;;;;;;;;;;;24.50;49.20;;;;;;5076545;28;19919;-73
2022/07/17 01:36:58;;;;;;;;;;;24.50;49.20;;;;;;5076367;28;19962;-73
2022/07/17 01:42:08;;;;;;;;;;;24.40;49.30;;;;;;5076532;28;19934;-73
2022/07/17 01:44:33;;;;;;;;;;;24.40;49.40;;;;;;5076064;28;19912;-73
2022/07/17 01:46:59;;;;;;;;;;;24.40;49.60;;;;;;5075939;28;20274;-73
2022/07/17 01:49:25;;;;;;;;;;;24.40;49.50;;;;;;5075885;28;19908;-73
2022/07/17 01:51:50;;;;;;;;;;;24.40;49.50;;;;;;5075680;28;19913;-73
2022/07/17 01:54:16;;;;;;;;;;;24.40;49.60;;;;;;5075851;28;20019;-73
2022/07/17 01:56:41;;;;;;;;;;;24.40;49.60;;;;;;5058560;28;19966;-74
2022/07/17 01:59:07;;;;;;;;;;;24.40;49.80;;;;;;5075870;28;20243;-74
2022/07/17 02:01:33;;;;;;;;;;;24.40;49.70;;;;;;5075799;28;19962;-74
2022/07/17 02:03:58;;;;;;;;;;;24.30;49.90;;;;;;5075843;28;19909;-74
2022/07/17 02:06:24;;;;;;;;;;;24.30;49.90;;;;;;5075240;28;19912;-74
2022/07/17 02:08:50;;;;;;;;;;;24.30;50.50;;;;;;5075320;28;19908;-73
2022/07/17 02:11:19;;;;;;;;;;;24.30;50.20;;;;;;5075499;28;19916;-73
2022/07/17 02:13:44;;;;;;;;;;;24.20;50.10;;;;;;5075514;28;19912;-72
2022/07/17 02:16:10;;;;;;;;;;;24.20;50.30;;;;;;5076288;28;19915;-74
2022/07/17 02:18:35;;;;;;;;;;;24.20;50.40;;;;;;5075432;28;19954;-73
2022/07/17 02:21:01;;;;;;;;;;;24.20;50.60;;;;;;5057382;28;20369;-73
2022/07/17 02:23:28;;;;;;;;;;;24.20;50.80;;;;;;5075028;28;19948;-73
2022/07/17 02:25:54;;;;;;;;;;;24.20;51.10;;;;;;5075283;28;19917;-75
2022/07/17 02:28:20;;;;;;;;;;;24.10;51.10;;;;;;5075194;28;19909;-73
2022/07/17 02:30:46;;;;;;;;;;;24.20;51.10;;;;;;5075088;28;19913;-73
2022/07/17 02:33:12;;;;;;;;;;;24.10;51.40;;;;;;5075120;28;19913;-74
2022/07/17 02:35:37;;;;;;;;;;;24.10;51.60;;;;;;5075234;28;19908;-74
2022/07/17 02:38:03;;;;;;;;;;;24.10;51.80;;;;;;5056745;28;19908;-74
2022/07/17 02:40:29;;;;;;;;;;;24.00;51.70;;;;;;5074783;28;19921;-74
2022/07/17 02:42:54;;;;;;;;;;;24.00;52.00;;;;;;5056994;28;20361;-74
2022/07/17 02:45:24;;;;;;;;;;;24.00;51.90;;;;;;5075246;28;19915;-74
2022/07/17 02:47:50;;;;;;;;;;;24.00;52.30;;;;;;5074886;28;19963;-74
2022/07/17 02:50:15;;;;;;;;;;;24.00;52.00;;;;;;5074756;28;19944;-75
2022/07/17 02:52:43;;;;;;;;;;;24.00;52.30;;;;;;5074373;28;20416;-74
2022/07/17 02:55:09;;;;;;;;;;;24.00;52.40;;;;;;5074539;28;19959;-74
2022/07/17 02:57:35;;;;;;;;;;;23.90;52.60;;;;;;5074973;28;19908;-74
2022/07/17 03:00:00;;;;;;;;;;;23.90;52.90;;;;;;5074405;28;20355;-72
2022/07/17 03:02:26;;;;;;;;;;;23.90;52.70;;;;;;5074617;28;20366;-73
2022/07/17 03:04:51;;;;;;;;;;;23.90;52.90;;;;;;5074242;28;19953;-74
2022/07/17 03:07:17;;;;;;;;;;;23.90;54.10;;;;;;5074179;28;19912;-74
2022/07/17 03:09:43;;;;;;;;;;;23.80;53.30;;;;;;5074966;28;19908;-73
2022/07/17 03:12:08;;;;;;;;;;;23.80;53.30;;;;;;5074484;28;20007;-73
2022/07/17 03:14:34;;;;;;;;;;;23.80;53.40;;;;;;5074439;28;19951;-73
2022/07/17 03:16:59;;;;;;;;;;;23.80;53.30;;;;;;5074010;28;20038;-73
2022/07/17 03:19:25;;;;;;;;;;;23.70;53.40;;;;;;5073999;28;19908;-72
2022/07/17 03:21:50;;;;;;;;;;;23.70;53.60;;;;;;5074011;28;19913;-74
2022/07/17 03:24:16;;;;;;;;;;;23.70;53.70;;;;;;5074146;28;19909;-73
2022/07/17 03:26:42;;;;;;;;;;;23.70;53.70;;;;;;5074538;28;19955;-73
2022/07/17 03:29:07;;;;;;;;;;;23.60;54.00;;;;;;5074477;28;19931;-74
2022/07/17 03:31:33;;;;;;;;;;;23.60;54.30;;;;;;5074574;28;19955;-74
2022/07/17 03:33:58;;;;;;;;;;;23.50;54.10;;;;;;5073925;28;19935;-74
2022/07/17 03:36:24;;;;;;;;;;;23.50;54.00;;;;;;5073846;28;20015;-73
2022/07/17 03:38:49;;;;;;;;;;;23.50;54.10;;;;;;5074285;28;19908;-73
2022/07/17 03:41:15;;;;;;;;;;;23.60;54.50;;;;;;5074240;28;19927;-73
2022/07/17 03:43:40;;;;;;;;;;;23.50;54.20;;;;;;5074104;28;19916;-72
2022/07/17 03:46:06;;;;;;;;;;;23.50;54.30;;;;;;5073764;28;19913;-72
2022/07/17 03:48:31;;;;;;;;;;;23.50;54.10;;;;;;5074072;28;19920;-73
2022/07/17 03:50:57;;;;;;;;;;;23.50;54.30;;;;;;5073567;28;19912;-73
2022/07/17 03:53:22;;;;;;;;;;;23.50;54.30;;;;;;5073754;28;19920;-73
2022/07/17 03:55:48;;;;;;;;;;;23.50;54.20;;;;;;5074120;28;20359;-74
2022/07/17 03:58:13;;;;;;;;;;;23.40;54.30;;;;;;5072655;28;19913;-73
2022/07/17 04:00:39;;;;;;;;;;;23.40;54.50;;;;;;5073703;28;20370;-73
2022/07/17 04:03:04;;;;;;;;;;;23.40;54.60;;;;;;5073907;28;19999;-73
2022/07/17 04:05:30;;;;;;;;;;;23.40;54.60;;;;;;5073799;28;19908;-74
2022/07/17 04:07:55;;;;;;;;;;;23.40;54.80;;;;;;5074283;28;19909;-74
2022/07/17 04:10:21;;;;;;;;;;;23.30;55.10;;;;;;5056131;28;20295;-73
2022/07/17 04:12:47;;;;;;;;;;;23.30;54.80;;;;;;5073497;28;19931;-73
2022/07/17 04:15:48;;;;;;;;;;;23.30;54.80;;;;;;5074158;28;20267;-73
2022/07/17 04:17:58;;;;;;;;;;;23.30;55.00;;;;;;5073841;28;19908;-74
2022/07/17 04:20:24;;;;;;;;;;;23.30;55.00;;;;;;5073765;28;19908;-73
2022/07/17 04:22:49;;;;;;;;;;;23.30;55.10;;;;;;5055857;28;19971;-74
2022/07/17 04:25:15;;;;;;;;;;;23.30;55.00;;;;;;5073595;28;19995;-73
2022/07/17 04:27:41;;;;;;;;;;;23.30;55.20;;;;;;5073749;28;20366;-74
2022/07/17 04:30:06;;;;;;;;;;;23.30;55.30;;;;;;5076350;28;19927;-74
2022/07/17 04:32:32;;;;;;;;;;;23.30;55.40;;;;;;5059204;28;20293;-73
2022/07/17 04:34:57;;;;;;;;;;;23.20;55.40;;;;;;5077781;28;19908;-76
2022/07/17 04:37:23;;;;;;;;;;;23.20;55.70;;;;;;5077311;28;19955;-73
2022/07/17 04:39:48;;;;;;;;;;;23.20;55.60;;;;;;5077196;28;20293;-73
2022/07/17 04:42:14;;;;;;;;;;;23.20;55.30;;;;;;5077494;28;19912;-72
2022/07/17 04:44:39;;;;;;;;;;;23.20;55.60;;;;;;5077304;28;19962;-74
2022/07/17 04:47:05;;;;;;;;;;;23.20;55.70;;;;;;5077454;28;19913;-73
2022/07/17 04:49:30;;;;;;;;;;;23.20;55.70;;;;;;5077153;28;19912;-74
2022/07/17 04:51:56;;;;;;;;;;;23.20;55.90;;;;;;5077508;28;19917;-74
2022/07/17 04:54:21;;;;;;;;;;;23.10;55.90;;;;;;5076839;28;19912;-74
2022/07/17 04:56:47;;;;;;;;;;;23.20;56.10;;;;;;5077015;28;19908;-74
2022/07/17 04:59:12;;;;;;;;;;;23.20;56.20;;;;;;5076767;28;19908;-74
2022/07/17 05:01:38;;;;;;;;;;;23.20;56.10;;;;;;5076845;28;19916;-73
2022/07/17 05:04:04;;;;;;;;;;;23.10;56.00;;;;;;5076467;28;19909;-74
2022/07/17 05:06:29;;;;;;;;;;;23.20;56.40;;;;;;5076747;28;19914;-74
2022/07/17 05:08:55;;;;;;;;;;;23.10;56.40;;;;;;5076973;28;19908;-73
2022/07/17 05:11:21;;;;;;;;;;;23.10;56.40;;;;;;5076409;28;19970;-73
2022/07/17 05:13:46;;;;;;;;;;;23.20;56.60;;;;;;5076732;28;20002;-73
2022/07/17 05:16:12;;;;;;;;;;;23.20;56.60;;;;;;5076398;28;19909;-73
2022/07/17 05:18:37;;;;;;;;;;;23.20;56.80;;;;;;5076326;28;19930;-73
2022/07/17 05:21:03;;;;;;;;;;;23.20;56.70;;;;;;5076590;28;19923;-73
2022/07/17 05:23:28;;;;;;;;;;;23.20;56.50;;;;;;5076675;28;19908;-72
2022/07/17 05:25:54;;;;;;;;;;;23.20;57.00;;;;;;5076398;28;20302;-73
2022/07/17 05:28:19;;;;;;;;;;;23.20;56.60;;;;;;5076594;28;19908;-72
2022/07/17 05:30:45;;;;;;;;;;;23.20;56.70;;;;;;5076058;28;20309;-74
2022/07/17 05:33:10;;;;;;;;;;;23.20;56.80;;;;;;5076135;28;19912;-73
2022/07/17 05:35:36;;;;;;;;;;;23.20;57.00;;;;;;5076125;28;19908;-73
2022/07/17 05:38:01;;;;;;;;;;;23.30;57.00;;;;;;5076080;28;19908;-72
2022/07/17 05:40:27;;;;;;;;;;;23.30;56.70;;;;;;5075454;28;19962;-74
2022/07/17 05:42:52;;;;;;;;;;;23.30;56.80;;;;;;5076265;28;19908;-74
2022/07/17 05:45:18;;;;;;;;;;;23.30;56.90;;;;;;5076096;28;20228;-74
2022/07/17 05:47:44;;;;;;;;;;;23.40;56.90;;;;;;5075958;28;20434;-73
2022/07/17 05:50:09;;;;;;;;;;;23.40;56.80;;;;;;5076253;28;20313;-73
2022/07/17 05:52:35;;;;;;;;;;;23.40;57.10;;;;;;5076009;28;20034;-73
2022/07/17 05:55:00;;;;;;;;;;;23.40;56.90;;;;;;5075790;28;19908;-73
2022/07/17 05:57:26;;;;;;;;;;;23.50;56.80;;;;;;5075681;28;19951;-74
2022/07/17 05:59:51;;;;;;;;;;;23.50;57.00;;;;;;5076070;28;19908;-75
2022/07/17 06:02:17;;;;;;;;;;;23.50;56.80;;;;;;5075435;28;19912;-73
2022/07/17 06:04:42;;;;;;;;;;;23.60;56.80;;;;;;5075818;28;19908;-72
2022/07/17 06:07:08;;;;;;;;;;;23.60;56.80;;;;;;5075635;28;20436;-73
2022/07/17 06:09:33;;;;;;;;;;;23.70;56.80;;;;;;5075479;28;20321;-73
2022/07/17 06:11:59;;;;;;;;;;;23.70;56.80;;;;;;5057523;28;20426;-74
2022/07/17 06:14:24;;;;;;;;;;;23.70;56.60;;;;;;5075178;28;20046;-74
2022/07/17 06:16:50;;;;;;;;;;;23.70;57.00;;;;;;5075217;28;19912;-73
2022/07/17 06:19:15;;;;;;;;;;;23.80;56.80;;;;;;5075091;28;19916;-71
2022/07/17 06:21:41;;;;;;;;;;;23.80;56.80;;;;;;5075211;28;19944;-74
2022/07/17 06:24:06;;;;;;;;;;;23.80;57.00;;;;;;5075399;28;19909;-73
2022/07/17 06:26:32;;;;;;;;;;;23.90;56.70;;;;;;5074925;28;19916;-73
2022/07/17 06:28:57;;;;;;;;;;;23.90;56.70;;;;;;5074905;28;19916;-74
2022/07/17 06:31:23;;;;;;;;;;;24.00;56.80;;;;;;5074978;28;19913;-74
2022/07/17 06:33:49;;;;;;;;;;;24.00;56.80;;;;;;5074987;28;19932;-73
2022/07/17 06:36:14;;;;;;;;;;;24.00;56.80;;;;;;5074781;28;19995;-74
2022/07/17 06:38:40;;;;;;;;;;;24.10;56.70;;;;;;5057363;28;20011;-74
2022/07/17 06:41:05;;;;;;;;;;;24.10;56.70;;;;;;5074860;28;20325;-73
2022/07/17 06:43:31;;;;;;;;;;;24.20;56.60;;;;;;5075004;28;19908;-73
2022/07/17 06:45:56;;;;;;;;;;;24.20;56.50;;;;;;5075175;28;19913;-74
2022/07/17 06:48:22;;;;;;;;;;;24.30;56.50;;;;;;5075170;28;19912;-73
2022/07/17 06:50:48;;;;;;;;;;;24.30;56.40;;;;;;5074941;28;19935;-74
2022/07/17 06:53:13;;;;;;;;;;;24.40;56.40;;;;;;5074702;28;19999;-74
2022/07/17 06:55:39;;;;;;;;;;;24.40;56.30;;;;;;5074681;28;19999;-74
2022/07/17 06:58:04;;;;;;;;;;;24.40;56.30;;;;;;5074492;28;19915;-73
2022/07/17 07:00:30;;;;;;;;;;;24.40;56.40;;;;;;5074555;28;19909;-74
2022/07/17 07:02:55;;;;;;;;;;;24.40;56.50;;;;;;5057113;28;20274;-74
2022/07/17 07:05:21;;;;;;;;;;;24.40;56.40;;;;;;5074630;28;19931;-73
2022/07/17 07:07:47;;;;;;;;;;;24.40;56.30;;;;;;5074772;28;19955;-74
2022/07/17 07:10:12;;;;;;;;;;;24.40;56.40;;;;;;5074484;28;20384;-73
2022/07/17 07:12:38;;;;;;;;;;;24.40;56.50;;;;;;5074408;28;19914;-75
2022/07/17 07:15:04;;;;;;;;;;;24.40;56.40;;;;;;5074786;28;19908;-74
2022/07/17 07:17:31;;;;;;;;;;;24.60;56.50;;;;;;5074405;28;19908;-74
2022/07/17 07:19:57;;;;;;;;;;;24.70;56.40;;;;;;5074242;28;19991;-76
2022/07/17 07:22:23;;;;;;;;;;;24.70;56.20;;;;;;5074604;28;19914;-73
2022/07/17 07:24:48;;;;;;;;;;;24.90;56.00;;;;;;5074495;28;19936;-75
2022/07/17 07:27:14;;;;;;;;;;;25.00;55.90;;;;;;5056612;28;19919;-74
2022/07/17 07:29:39;;;;;;;;;;;25.10;55.70;;;;;;5055939;28;19908;-74
2022/07/17 07:32:05;;;;;;;;;;;25.20;55.60;;;;;;5074271;28;19969;-74
2022/07/17 07:34:31;;;;;;;;;;;25.30;55.50;;;;;;5074070;28;19913;-74
2022/07/17 07:36:56;;;;;;;;;;;25.50;55.50;;;;;;5074164;28;19916;-74
2022/07/17 07:39:22;;;;;;;;;;;25.50;55.10;;;;;;5074090;28;20029;-73
2022/07/17 07:41:47;;;;;;;;;;;25.60;55.00;;;;;;5073788;28;19944;-73
2022/07/17 07:44:13;;;;;;;;;;;25.60;54.90;;;;;;5073693;28;19962;-73
2022/07/17 07:46:38;;;;;;;;;;;25.60;54.90;;;;;;5056272;28;19916;-74
2022/07/17 07:49:04;;;;;;;;;;;25.70;54.80;;;;;;5073903;28;19916;-73
2022/07/17 07:51:29;;;;;;;;;;;25.80;54.80;;;;;;5073731;28;19916;-74
2022/07/17 07:53:55;;;;;;;;;;;25.90;54.80;;;;;;5073931;28;19912;-74
2022/07/17 07:56:20;;;;;;;;;;;25.90;54.60;;;;;;5074022;28;20313;-74
2022/07/17 07:58:46;;;;;;;;;;;26.00;54.50;;;;;;5073544;28;19931;-75
2022/07/17 08:01:11;;;;;;;;;;;26.10;54.40;;;;;;5073620;28;20019;-74
2022/07/17 08:03:37;;;;;;;;;;;26.20;54.40;;;;;;5056240;28;19912;-74
2022/07/17 08:06:03;;;;;;;;;;;26.20;54.20;;;;;;5077961;28;19932;-74
2022/07/17 08:08:28;;;;;;;;;;;26.30;54.10;;;;;;5059497;28;19916;-74
2022/07/17 08:10:54;;;;;;;;;;;26.40;54.10;;;;;;5077730;28;19927;-73
2022/07/17 08:13:19;;;;;;;;;;;26.50;53.90;;;;;;5078026;28;19916;-75
2022/07/17 08:15:45;;;;;;;;;;;26.60;53.80;;;;;;5060152;28;20556;-74
2022/07/17 08:18:10;;;;;;;;;;;26.60;53.80;;;;;;5077671;28;20416;-74
2022/07/17 08:20:36;;;;;;;;;;;26.70;53.70;;;;;;5077551;28;19914;-73
2022/07/17 08:23:01;;;;;;;;;;;26.70;53.50;;;;;;5077719;28;19916;-73
2022/07/17 08:25:27;;;;;;;;;;;26.80;53.40;;;;;;5059595;28;19962;-74
2022/07/17 08:27:53;;;;;;;;;;;26.80;53.40;;;;;;5077717;28;20278;-73
2022/07/17 08:30:18;;;;;;;;;;;26.90;53.30;;;;;;5077125;28;19935;-73
2022/07/17 08:32:44;;;;;;;;;;;27.00;53.20;;;;;;5077534;28;19954;-73
2022/07/17 08:35:10;;;;;;;;;;;27.00;53.10;;;;;;5059003;28;19908;-73
2022/07/17 08:37:49;;;;;;;;;;;27.00;53.00;;;;;;5077013;28;19915;-74
2022/07/17 08:40:17;;;;;;;;;;;27.10;53.00;;;;;;5059119;28;19924;-74
2022/07/17 08:42:43;;;;;;;;;;;27.10;53.10;;;;;;5076788;28;19908;-75
2022/07/17 08:45:09;;;;;;;;;;;27.10;53.00;;;;;;5076931;28;19912;-74
2022/07/17 08:47:36;;;;;;;;;;;27.10;52.90;;;;;;5058932;28;20337;-74
2022/07/17 08:50:01;;;;;;;;;;;27.10;52.90;;;;;;5076981;28;20363;-74
2022/07/17 08:52:27;;;;;;;;;;;27.10;52.90;;;;;;5077130;28;19919;-73
2022/07/17 08:54:52;;;;;;;;;;;27.00;52.80;;;;;;5076944;28;20003;-74
2022/07/17 08:57:18;;;;;;;;;;;27.00;52.90;;;;;;5076657;28;20381;-74
2022/07/17 08:59:46;;;;;;;;;;;26.90;52.80;;;;;;5076959;28;19922;-74
2022/07/17 09:02:12;;;;;;;;;;;26.90;52.90;;;;;;5076806;28;19999;-74
2022/07/17 09:04:39;;;;;;;;;;;26.80;52.90;;;;;;5076764;28;20375;-73
2022/07/17 09:07:05;;;;;;;;;;;26.80;53.00;;;;;;5076737;28;19966;-74
2022/07/17 09:09:31;;;;;;;;;;;26.80;53.20;;;;;;5076331;28;19913;-74
2022/07/17 09:11:58;;;;;;;;;;;26.70;53.10;;;;;;5076409;28;20294;-73
2022/07/17 09:14:24;;;;;;;;;;;26.80;53.20;;;;;;5077014;28;20063;-74
2022/07/17 09:16:49;;;;;;;;;;;26.80;53.20;;;;;;5057051;28;19944;-74
2022/07/17 09:19:24;;;;;;;;;;;26.90;53.20;;;;;;5076168;28;19916;-75
2022/07/17 09:21:50;;;;;;;;;;;27.00;53.20;;;;;;5076471;28;20246;-74
2022/07/17 09:24:16;;;;;;;;;;;27.10;53.10;;;;;;5076177;28;19953;-74
2022/07/17 09:26:44;;;;;;;;;;;27.10;52.90;;;;;;5076369;28;19912;-73
2022/07/17 09:29:11;;;;;;;;;;;27.20;52.80;;;;;;5076673;28;19909;-74
2022/07/17 09:31:37;;;;;;;;;;;27.20;52.70;;;;;;5076333;28;19912;-74
2022/07/17 09:34:02;;;;;;;;;;;27.30;52.60;;;;;;5076253;28;19912;-74
2022/07/17 09:36:28;;;;;;;;;;;27.30;52.60;;;;;;5076320;28;19908;-74
2022/07/17 09:38:55;;;;;;;;;;;27.30;52.60;;;;;;5076385;28;19912;-74
2022/07/17 09:41:21;;;;;;;;;;;27.40;52.60;;;;;;5077215;28;19924;-75
2022/07/17 09:43:50;;;;;;;;;;;27.40;52.50;;;;;;5076558;28;20424;-74
2022/07/17 09:46:17;;;;;;;;;;;27.40;52.40;;;;;;5076168;28;19995;-75
2022/07/17 09:48:47;;;;;;;;;;;27.40;52.20;;;;;;5058114;28;19916;-74
2022/07/17 09:51:16;;;;;;;;;;;27.50;52.20;;;;;;5074925;28;20478;-74
2022/07/17 09:53:44;;;;;;;;;;;27.40;52.10;;;;;;5075740;28;19913;-74
2022/07/17 09:56:10;;;;;;;;;;;27.50;52.10;;;;;;5075591;28;19916;-74
2022/07/17 09:58:39;;;;;;;;;;;27.50;52.10;;;;;;5075710;28;19933;-74
2022/07/17 10:01:05;;;;;;;;;;;27.50;52.00;;;;;;5075550;28;19913;-74
2022/07/17 10:03:30;;;;;;;;;;;27.60;52.00;;;;;;5075551;28;19955;-74
2022/07/17 10:05:56;;;;;;;;;;;27.70;51.90;;;;;;5057745;28;19954;-75
2022/07/17 10:08:22;;;;;;;;;;;27.70;51.90;;;;;;5075425;28;19955;-74
2022/07/17 10:10:47;;;;;;;;;;;27.80;51.60;;;;;;5075353;28;20016;-75
2022/07/17 10:13:15;;;;;;;;;;;27.80;51.60;;;;;;5057663;28;19932;-75
2022/07/17 10:15:41;;;;;;;;;;;27.80;51.60;;;;;;5075489;28;19970;-74
2022/07/17 10:18:07;;;;;;;;;;;27.80;51.50;;;;;;5075257;28;19999;-74
2022/07/17 10:20:33;;;;;;;;;;;27.80;51.40;;;;;;5075186;28;20362;-74
2022/07/17 10:22:58;;;;;;;;;;;27.80;51.40;;;;;;5074511;28;19912;-74
2022/07/17 10:25:24;;;;;;;;;;;27.70;51.30;;;;;;5075630;28;20008;-76
2022/07/17 10:27:53;;;;;;;;;;;27.60;51.40;;;;;;5075120;28;20279;-74
2022/07/17 10:30:26;;;;;;;;;;;27.50;51.50;;;;;;5075109;28;19975;-74
2022/07/17 10:32:56;;;;;;;;;;;27.40;51.60;;;;;;5074947;28;19912;-74
2022/07/17 10:35:21;;;;;;;;;;;27.30;51.70;;;;;;5057337;28;20007;-74
2022/07/17 10:37:47;;;;;;;;;;;27.10;51.90;;;;;;5075161;28;19962;-73
2022/07/17 10:40:19;;;;;;;;;;;27.00;52.40;;;;;;5074929;28;20421;-74
2022/07/17 10:42:58;;;;;;;;;;;26.80;52.50;;;;;;5074983;28;19917;-74
2022/07/17 10:45:25;;;;;;;;;;;26.60;52.80;;;;;;5056561;28;19913;-73
2022/07/17 10:47:53;;;;;;;;;;;26.50;53.00;;;;;;5074824;28;19994;-74
2022/07/17 10:50:20;;;;;;;;;;;26.40;53.10;;;;;;5074778;28;19912;-73
2022/07/17 10:52:55;;;;;;;;;;;26.40;53.20;;;;;;5074754;28;20376;-73
2022/07/17 10:55:21;;;;;;;;;;;26.30;53.20;;;;;;5074565;28;20429;-72
2022/07/17 10:57:48;;;;;;;;;;;26.30;53.30;;;;;;5074367;28;20012;-73
2022/07/17 11:00:15;;;;;;;;;;;26.30;53.50;;;;;;5074220;28;19908;-75
2022/07/17 11:02:41;;;;;;;;;;;26.20;53.50;;;;;;5074899;28;20328;-73
2022/07/17 11:05:07;;;;;;;;;;;26.20;53.60;;;;;;5074554;28;20350;-73
2022/07/17 11:07:33;;;;;;;;;;;26.20;53.70;;;;;;5074523;28;19935;-73
2022/07/17 11:09:59;;;;;;;;;;;26.10;53.90;;;;;;5074423;28;20301;-73
2022/07/17 11:12:31;;;;;;;;;;;26.00;53.90;;;;;;5074007;28;19921;-73
2022/07/17 11:15:00;;;;;;;;;;;26.00;54.10;;;;;;5074430;28;19912;-74
2022/07/17 11:17:26;;;;;;;;;;;26.00;54.10;;;;;;5074513;28;19909;-74
2022/07/17 11:19:52;;;;;;;;;;;26.00;54.30;;;;;;5074106;28;19931;-74
2022/07/17 11:22:21;;;;;;;;;;;25.90;54.20;;;;;;5056236;28;19908;-74
2022/07/17 11:24:48;;;;;;;;;;;26.00;54.30;;;;;;5074123;28;20356;-73
2022/07/17 11:27:19;;;;;;;;;;;26.00;54.20;;;;;;5074412;28;20293;-73
2022/07/17 11:29:45;;;;;;;;;;;26.00;54.20;;;;;;5074420;28;19912;-73
2022/07/17 11:32:11;;;;;;;;;;;26.00;54.10;;;;;;5073883;28;19963;-73
2022/07/17 11:34:36;;;;;;;;;;;26.10;54.20;;;;;;5073905;28;20357;-73
2022/07/17 11:37:03;;;;;;;;;;;26.10;54.00;;;;;;5073870;28;19909;-74
2022/07/17 11:39:39;;;;;;;;;;;26.20;54.00;;;;;;5073261;28;19999;-73
2022/07/17 11:42:07;;;;;;;;;;;26.20;53.90;;;;;;5074311;28;19940;-73
2022/07/17 11:44:33;;;;;;;;;;;26.20;53.90;;;;;;5073981;28;19920;-73
2022/07/17 11:46:58;;;;;;;;;;;26.20;53.90;;;;;;5073926;28;19916;-73
2022/07/17 11:49:25;;;;;;;;;;;26.20;53.90;;;;;;5056019;28;19919;-73
2022/07/17 11:51:51;;;;;;;;;;;26.20;54.00;;;;;;5073617;28;19917;-74
2022/07/17 11:54:17;;;;;;;;;;;26.20;53.90;;;;;;5073538;28;19913;-73
2022/07/17 11:56:43;;;;;;;;;;;26.30;54.00;;;;;;5073586;28;19912;-73
2022/07/17 11:59:09;;;;;;;;;;;26.30;54.00;;;;;;5073746;28;19916;-74
2022/07/17 12:01:39;;;;;;;;;;;26.50;54.00;;;;;;5073870;28;19909;-74
2022/07/17 12:04:06;;;;;;;;;;;26.60;53.90;;;;;;5073585;28;20449;-74
2022/07/17 12:06:32;;;;;;;;;;;26.70;53.80;;;;;;5074335;28;19915;-76
2022/07/17 12:08:57;;;;;;;;;;;26.70;53.60;;;;;;5073866;28;19913;-74
2022/07/17 12:11:23;;;;;;;;;;;26.70;53.70;;;;;;5073900;28;19916;-73
2022/07/17 12:13:48;;;;;;;;;;;26.70;53.60;;;;;;5073513;28;19909;-74
2022/07/17 12:16:25;;;;;;;;;;;26.70;53.60;;;;;;5055854;28;19913;-74
2022/07/17 12:19:14;;;;;;;;;;;26.70;53.60;;;;;;5073531;28;19962;-74
2022/07/17 12:21:45;;;;;;;;;;;26.80;53.60;;;;;;5073828;28;19908;-72
2022/07/17 12:24:17;;;;;;;;;;;26.80;53.50;;;;;;5073208;28;19915;-74
2022/07/17 12:26:43;;;;;;;;;;;26.90;54.00;;;;;;5073612;28;20322;-74
2022/07/17 12:29:08;;;;;;;;;;;26.90;53.30;;;;;;5073415;28;19909;-74
2022/07/17 12:31:34;;;;;;;;;;;26.80;53.10;;;;;;5073332;28;19924;-75
2022/07/17 12:33:59;;;;;;;;;;;26.90;53.30;;;;;;5073994;28;19909;-74
2022/07/17 12:36:25;;;;;;;;;;;27.00;53.30;;;;;;5073588;28;19938;-75
2022/07/17 12:38:50;;;;;;;;;;;27.00;53.10;;;;;;5073306;28;19912;-74
2022/07/17 12:41:16;;;;;;;;;;;27.10;53.00;;;;;;5040347;28;19920;-75
2022/07/17 12:43:42;;;;;;;;;;;27.10;52.90;;;;;;5053410;28;19925;-74
2022/07/17 12:46:08;;;;;;;;;;;27.00;52.80;;;;;;5034877;28;20286;-75
2022/07/17 12:48:34;;;;;;;;;;;27.00;52.80;;;;;;5052940;28;19913;-74
2022/07/17 12:51:00;;;;;;;;;;;27.10;52.80;;;;;;5054478;28;19924;-74
2022/07/17 12:53:26;;;;;;;;;;;27.00;52.70;;;;;;5039273;28;19909;-75
2022/07/17 12:55:52;;;;;;;;;;;27.00;52.60;;;;;;5057235;28;19916;-74
2022/07/17 12:58:17;;;;;;;;;;;27.00;52.60;;;;;;5038948;28;19909;-74
2022/07/17 13:00:43;;;;;;;;;;;26.90;52.60;;;;;;5056836;28;19909;-74
2022/07/17 13:03:08;;;;;;;;;;;26.90;52.70;;;;;;5056522;28;20011;-74
2022/07/17 13:05:34;;;;;;;;;;;26.90;52.80;;;;;;5039422;28;19920;-74
2022/07/17 13:07:59;;;;;;;;;;;27.00;52.80;;;;;;5056878;28;20311;-74
2022/07/17 13:10:25;;;;;;;;;;;27.10;52.90;;;;;;5055315;28;20352;-75
2022/07/17 13:12:51;;;;;;;;;;;27.20;52.40;;;;;;5056764;28;19955;-74
2022/07/17 13:15:16;;;;;;;;;;;27.30;52.20;;;;;;5055039;28;19909;-75
2022/07/17 13:17:42;;;;;;;;;;;27.40;51.90;;;;;;5056656;28;20350;-75
2022/07/17 13:20:08;;;;;;;;;;;27.50;51.60;;;;;;5056534;28;20341;-75
2022/07/17 13:22:34;;;;;;;;;;;27.60;50.90;;;;;;5056506;28;19915;-74
2022/07/17 13:24:59;;;;;;;;;;;27.70;51.00;;;;;;5056743;28;20355;-74
2022/07/17 13:27:25;;;;;;;;;;;27.80;50.90;;;;;;5056397;28;20035;-74
2022/07/17 13:29:50;;;;;;;;;;;27.90;50.80;;;;;;5055936;28;20003;-73
2022/07/17 13:32:16;;;;;;;;;;;28.10;50.50;;;;;;5056003;28;19928;-75
2022/07/17 13:34:41;;;;;;;;;;;28.30;50.40;;;;;;5056211;28;19913;-74
2022/07/17 13:37:08;;;;;;;;;;;28.40;49.80;;;;;;5054772;28;19916;-74
2022/07/17 13:39:34;;;;;;;;;;;28.60;49.60;;;;;;5056558;28;19909;-75
2022/07/17 13:41:59;;;;;;;;;;;28.90;49.20;;;;;;5076097;28;19909;-74
2022/07/17 13:44:25;;;;;;;;;;;29.30;49.40;;;;;;5076318;28;20266;-73
2022/07/17 13:46:51;;;;;;;;;;;29.60;48.70;;;;;;5075608;28;20051;-74
2022/07/17 13:49:16;;;;;;;;;;;30.00;48.30;;;;;;5076731;28;20342;-74
2022/07/17 13:51:43;;;;;;;;;;;30.50;46.60;;;;;;5075830;28;19920;-74
2022/07/17 13:54:08;;;;;;;;;;;31.20;46.60;;;;;;5075604;28;19975;-74
2022/07/17 13:56:34;;;;;;;;;;;31.60;45.60;;;;;;5075630;28;20007;-74
2022/07/17 13:59:00;;;;;;;;;;;32.00;44.60;;;;;;5075912;28;20333;-75
2022/07/17 14:01:27;;;;;;;;;;;32.60;44.00;;;;;;5075166;28;19908;-74
2022/07/17 14:03:52;;;;;;;;;;;33.30;44.90;;;;;;5075608;28;19940;-75
2022/07/17 14:06:18;;;;;;;;;;;34.00;45.00;;;;;;5075722;28;19915;-74
2022/07/17 14:08:43;;;;;;;;;;;34.80;43.00;;;;;;5058023;28;20366;-75
2022/07/17 14:11:10;;;;;;;;;;;35.40;44.20;;;;;;5075223;28;19920;-74
2022/07/17 14:13:35;;;;;;;;;;;35.90;42.30;;;;;;5075493;28;19908;-74